Time;durP1;ratioP1;P1;durP2;ratioP2;P2;SDS_P1;SDS_P2;PMS_P1;PMS_P2;Temp;Humidity;BMP_temperature;BMP_pressure;BME280_temperature;BME280_humidity;BME280_pressure;Samples;Min_cycle;Max_cycle;Signal;HPM_P1;HPM_P2
2022/12/13 00:00:17;;;;;;;0.20;0.10;;;;;;;;;;5029153;28;20040;-81
2022/12/13 00:02:43;;;;;;;0.20;0.10;;;;;;;;;;5033410;28;20567;-82
2022/12/13 00:05:10;;;;;;;0.30;0.30;;;;;;;;;;5034392;28;20345;-81
2022/12/13 00:07:36;;;;;;;0.20;0.10;;;;;;;;;;5035561;28;20043;-81
2022/12/13 00:10:03;;;;;;;0.20;0.10;;;;;;;;;;5037441;28;20052;-82
2022/12/13 00:12:30;;;;;;;0.20;0.10;;;;;;;;;;5019534;28;20034;-82
2022/12/13 00:14:56;;;;;;;0.57;0.57;;;;;;;;;;5035505;28;20538;-81
2022/12/13 00:17:22;;;;;;;0.40;0.40;;;;;;;;;;5040819;28;20041;-81
2022/12/13 00:19:48;;;;;;;0.20;0.10;;;;;;;;;;5040214;28;20187;-81
2022/12/13 00:22:15;;;;;;;0.20;0.17;;;;;;;;;;5041525;28;20501;-81
2022/12/13 00:24:42;;;;;;;0.47;0.47;;;;;;;;;;5041275;28;20073;-82
2022/12/13 00:27:08;;;;;;;0.20;0.10;;;;;;;;;;5023499;28;20041;-82
2022/12/13 00:29:34;;;;;;;0.25;0.20;;;;;;;;;;5028413;28;20053;-82
2022/12/13 00:32:00;;;;;;;0.20;0.10;;;;;;;;;;5022331;28;20057;-82
2022/12/13 00:34:27;;;;;;;0.20;0.10;;;;;;;;;;5035639;28;20423;-83
2022/12/13 00:36:53;;;;;;;2.08;1.95;;;;;;;;;;5038648;28;20126;-82
2022/12/13 00:39:19;;;;;;;0.20;0.10;;;;;;;;;;5040207;28;20033;-82
2022/12/13 00:41:45;;;;;;;1.42;1.35;;;;;;;;;;5036366;28;20033;-80
2022/12/13 00:44:12;;;;;;;0.20;0.10;;;;;;;;;;5039623;28;20124;-83
2022/12/13 00:46:38;;;;;;;0.47;0.47;;;;;;;;;;5037244;28;20112;-80
2022/12/13 00:49:04;;;;;;;0.20;0.20;;;;;;;;;;5037981;28;20033;-82
2022/12/13 00:51:31;;;;;;;1.58;1.48;;;;;;;;;;5020230;28;20040;-82
2022/12/13 00:53:58;;;;;;;0.20;0.10;;;;;;;;;;5037250;28;20033;-83
2022/12/13 00:56:26;;;;;;;0.20;0.10;;;;;;;;;;5039552;28;20029;-81
2022/12/13 00:58:52;;;;;;;0.20;0.10;;;;;;;;;;5043682;28;20107;-81
2022/12/13 01:01:20;;;;;;;0.20;0.10;;;;;;;;;;5039717;28;20065;-82
2022/12/13 01:03:47;;;;;;;0.20;0.10;;;;;;;;;;5038084;28;20037;-82
2022/12/13 01:06:14;;;;;;;0.20;0.10;;;;;;;;;;5038266;28;20381;-82
2022/12/13 01:08:40;;;;;;;0.20;0.10;;;;;;;;;;5019683;28;20049;-82
2022/12/13 01:11:07;;;;;;;0.20;0.10;;;;;;;;;;5035857;28;20494;-82
2022/12/13 01:13:33;;;;;;;0.20;0.10;;;;;;;;;;5035011;28;20414;-82
2022/12/13 01:16:01;;;;;;;0.20;0.10;;;;;;;;;;5035977;28;20094;-82
2022/12/13 01:18:27;;;;;;;0.85;0.85;;;;;;;;;;5014062;28;20554;-82
2022/12/13 01:21:02;;;;;;;0.20;0.10;;;;;;;;;;5032262;28;20033;-82
2022/12/13 01:23:29;;;;;;;0.20;0.10;;;;;;;;;;5035178;28;20044;-82
2022/12/13 01:25:55;;;;;;;0.20;0.10;;;;;;;;;;5033142;28;20411;-81
2022/12/13 01:28:21;;;;;;;0.38;0.30;;;;;;;;;;5032560;28;20064;-81
2022/12/13 01:30:58;;;;;;;0.20;0.10;;;;;;;;;;5017416;28;20124;-82
2022/12/13 01:33:24;;;;;;;0.20;0.10;;;;;;;;;;5015933;28;20045;-82
2022/12/13 01:35:51;;;;;;;5.70;5.28;;;;;;;;;;5019378;28;20040;-82
2022/12/13 01:38:17;;;;;;;0.20;0.10;;;;;;;;;;5022530;28;20033;-82
2022/12/13 01:40:46;;;;;;;0.20;0.10;;;;;;;;;;5031770;28;20045;-82
2022/12/13 01:43:13;;;;;;;0.20;0.10;;;;;;;;;;5038906;28;20392;-82
2022/12/13 01:45:39;;;;;;;0.20;0.10;;;;;;;;;;5019260;28;20041;-81
2022/12/13 01:48:07;;;;;;;1.17;1.08;;;;;;;;;;5035986;28;20041;-82
2022/12/13 01:50:36;;;;;;;0.20;0.10;;;;;;;;;;5034385;28;20059;-82
2022/12/13 01:53:04;;;;;;;0.20;0.10;;;;;;;;;;5033860;28;20462;-82
2022/12/13 01:55:33;;;;;;;0.20;0.10;;;;;;;;;;5018026;28;20041;-81
2022/12/13 01:58:00;;;;;;;0.20;0.10;;;;;;;;;;5018801;28;20033;-81
2022/12/13 02:00:26;;;;;;;0.50;0.50;;;;;;;;;;5016213;28;20037;-81
2022/12/13 02:02:53;;;;;;;0.20;0.10;;;;;;;;;;5041574;28;20392;-82
2022/12/13 02:05:37;;;;;;;0.20;0.10;;;;;;;;;;5038717;28;20032;-82
2022/12/13 02:08:04;;;;;;;0.20;0.10;;;;;;;;;;5027438;28;20043;-82
2022/12/13 02:10:30;;;;;;;0.20;0.10;;;;;;;;;;5045674;28;20048;-82
2022/12/13 02:12:57;;;;;;;0.20;0.10;;;;;;;;;;5035949;28;20132;-82
2022/12/13 02:15:26;;;;;;;0.20;0.10;;;;;;;;;;5017520;28;20384;-82
2022/12/13 02:18:01;;;;;;;0.20;0.10;;;;;;;;;;5038372;28;20163;-82
2022/12/13 02:20:49;;;;;;;0.20;0.10;;;;;;;;;;5034045;28;20558;-82
2022/12/13 02:23:38;;;;;;;0.35;0.35;;;;;;;;;;5033184;28;20600;-82
2022/12/13 02:26:10;;;;;;;0.20;0.10;;;;;;;;;;5037183;28;20450;-83
2022/12/13 02:28:46;;;;;;;1.38;1.27;;;;;;;;;;5031556;28;20048;-82
2022/12/13 02:31:25;;;;;;;0.20;0.10;;;;;;;;;;5036015;28;20470;-82
2022/12/13 02:34:00;;;;;;;0.20;0.10;;;;;;;;;;5034087;28;20286;-81
2022/12/13 02:36:32;;;;;;;6.75;1.65;;;;;;;;;;5047762;28;20498;-82
2022/12/13 02:39:10;;;;;;;0.20;0.10;;;;;;;;;;5032236;28;20029;-82
2022/12/13 02:41:48;;;;;;;0.20;0.10;;;;;;;;;;5047291;28;20029;-81
2022/12/13 02:44:22;;;;;;;0.63;0.43;;;;;;;;;;5039289;28;20052;-82
2022/12/13 02:46:51;;;;;;;0.85;0.85;;;;;;;;;;5033316;28;20041;-83
2022/12/13 02:49:18;;;;;;;0.40;0.40;;;;;;;;;;5031557;28;20041;-82
2022/12/13 02:51:45;;;;;;;0.20;0.10;;;;;;;;;;5033910;28;20327;-83
2022/12/13 02:54:11;;;;;;;0.25;0.25;;;;;;;;;;5014624;28;21075;-83
2022/12/13 02:56:37;;;;;;;0.20;0.10;;;;;;;;;;5034487;28;20107;-83
2022/12/13 02:59:09;;;;;;;0.88;0.85;;;;;;;;;;5033489;28;20067;-80
2022/12/13 03:01:44;;;;;;;0.20;0.20;;;;;;;;;;5030634;28;20119;-80
2022/12/13 03:04:10;;;;;;;0.20;0.10;;;;;;;;;;5019748;28;20141;-80
2022/12/13 03:06:42;;;;;;;0.20;0.10;;;;;;;;;;5012507;28;20835;-80
2022/12/13 03:09:24;;;;;;;0.20;0.10;;;;;;;;;;5030525;28;20143;-80
2022/12/13 03:14:41;;;;;;;0.20;0.10;;;;;;;;;;5029952;28;20304;-81
2022/12/13 03:17:07;;;;;;;0.20;0.10;;;;;;;;;;5039901;28;20392;-80
2022/12/13 03:19:33;;;;;;;0.25;0.25;;;;;;;;;;5032754;28;20041;-81
2022/12/13 03:21:59;;;;;;;0.20;0.10;;;;;;;;;;5037768;28;20489;-81
2022/12/13 03:24:25;;;;;;;0.20;0.10;;;;;;;;;;5043022;28;20041;-81
2022/12/13 03:26:51;;;;;;;0.20;0.10;;;;;;;;;;5039733;28;20558;-81
2022/12/13 03:29:18;;;;;;;0.20;0.10;;;;;;;;;;5039050;28;20079;-82
2022/12/13 03:31:45;;;;;;;0.90;0.90;;;;;;;;;;5042001;28;20037;-83
2022/12/13 03:34:11;;;;;;;0.20;0.10;;;;;;;;;;5039962;28;20178;-82
2022/12/13 03:36:37;;;;;;;0.20;0.10;;;;;;;;;;5036858;28;20492;-82
2022/12/13 03:39:06;;;;;;;0.20;0.10;;;;;;;;;;5038106;28;20118;-81
2022/12/13 03:41:32;;;;;;;0.20;0.15;;;;;;;;;;5039134;28;20048;-81
2022/12/13 03:44:08;;;;;;;0.20;0.10;;;;;;;;;;5044797;28;20454;-81
2022/12/13 03:46:34;;;;;;;0.20;0.10;;;;;;;;;;5037921;28;20041;-82
2022/12/13 03:49:00;;;;;;;0.20;0.10;;;;;;;;;;5034678;28;20037;-82
2022/12/13 03:51:26;;;;;;;0.80;0.80;;;;;;;;;;5034212;28;20121;-80
2022/12/13 03:53:52;;;;;;;0.20;0.10;;;;;;;;;;5038151;28;20068;-82
2022/12/13 03:56:18;;;;;;;0.20;0.10;;;;;;;;;;5035059;28;20071;-82
2022/12/13 03:58:44;;;;;;;0.20;0.10;;;;;;;;;;5039805;28;20044;-81
2022/12/13 04:01:12;;;;;;;0.20;0.10;;;;;;;;;;5033932;28;20041;-82
2022/12/13 04:03:38;;;;;;;0.20;0.10;;;;;;;;;;5040788;28;20036;-82
2022/12/13 04:06:05;;;;;;;0.20;0.10;;;;;;;;;;5040369;28;20041;-80
2022/12/13 04:08:31;;;;;;;0.40;0.40;;;;;;;;;;5043240;28;20050;-82
2022/12/13 04:10:57;;;;;;;0.20;0.10;;;;;;;;;;5040542;28;20063;-81
2022/12/13 04:13:32;;;;;;;0.32;0.32;;;;;;;;;;5043446;28;20098;-82
2022/12/13 04:15:58;;;;;;;0.20;0.10;;;;;;;;;;5046445;28;20044;-82
2022/12/13 04:18:24;;;;;;;0.20;0.10;;;;;;;;;;5042132;28;20045;-82
2022/12/13 04:20:50;;;;;;;0.20;0.10;;;;;;;;;;5043276;28;20044;-81
2022/12/13 04:23:16;;;;;;;0.20;0.10;;;;;;;;;;5026608;28;20033;-82
2022/12/13 04:25:43;;;;;;;0.40;0.40;;;;;;;;;;5044932;28;20171;-83
2022/12/13 04:28:09;;;;;;;0.20;0.10;;;;;;;;;;5043719;28;20059;-82
2022/12/13 04:30:35;;;;;;;1.80;1.17;;;;;;;;;;5044904;28;20041;-82
2022/12/13 04:33:01;;;;;;;0.32;0.32;;;;;;;;;;5043030;28;20771;-83
2022/12/13 04:35:27;;;;;;;0.20;0.10;;;;;;;;;;5043484;28;20047;-82
2022/12/13 04:37:53;;;;;;;0.32;0.32;;;;;;;;;;5035097;28;20406;-83
2022/12/13 04:40:19;;;;;;;0.20;0.10;;;;;;;;;;5041122;28;20037;-83
2022/12/13 04:42:45;;;;;;;0.20;0.10;;;;;;;;;;5040518;28;20033;-81
2022/12/13 04:45:15;;;;;;;0.20;0.10;;;;;;;;;;5043848;28;20052;-83
2022/12/13 04:47:41;;;;;;;0.20;0.10;;;;;;;;;;5042522;28;20033;-81
2022/12/13 04:50:07;;;;;;;0.20;0.15;;;;;;;;;;5032791;28;20255;-81
2022/12/13 04:52:34;;;;;;;0.30;0.30;;;;;;;;;;5027127;28;20049;-82
2022/12/13 04:55:00;;;;;;;0.20;0.10;;;;;;;;;;5031740;28;20059;-82
2022/12/13 04:57:26;;;;;;;0.20;0.10;;;;;;;;;;5028105;28;20218;-82
2022/12/13 04:59:52;;;;;;;0.22;0.15;;;;;;;;;;5037615;28;20651;-82
2022/12/13 05:02:18;;;;;;;0.20;0.10;;;;;;;;;;5032190;28;20045;-82
2022/12/13 05:04:45;;;;;;;0.20;0.10;;;;;;;;;;5019099;28;20067;-82
2022/12/13 05:07:11;;;;;;;0.20;0.10;;;;;;;;;;5027634;28;20037;-82
2022/12/13 05:09:37;;;;;;;0.20;0.10;;;;;;;;;;5036037;28;20065;-82
2022/12/13 05:12:03;;;;;;;0.20;0.10;;;;;;;;;;5039161;28;20040;-82
2022/12/13 05:14:30;;;;;;;0.20;0.10;;;;;;;;;;5033537;28;20047;-82
2022/12/13 05:16:56;;;;;;;0.20;0.10;;;;;;;;;;5023459;28;20037;-81
2022/12/13 05:19:22;;;;;;;0.20;0.10;;;;;;;;;;5040038;28;20618;-83
2022/12/13 05:21:49;;;;;;;0.20;0.10;;;;;;;;;;5026225;28;20091;-82
2022/12/13 05:24:15;;;;;;;0.20;0.10;;;;;;;;;;5047035;28;20028;-81
2022/12/13 05:26:41;;;;;;;0.20;0.10;;;;;;;;;;5059518;28;20072;-81
2022/12/13 05:29:07;;;;;;;0.20;0.10;;;;;;;;;;5058387;28;20025;-81
2022/12/13 05:31:33;;;;;;;0.20;0.10;;;;;;;;;;5058361;28;20042;-82
2022/12/13 05:33:59;;;;;;;0.50;0.50;;;;;;;;;;5046359;28;20037;-82
2022/12/13 05:36:25;;;;;;;0.20;0.10;;;;;;;;;;5020048;28;20044;-82
2022/12/13 05:38:51;;;;;;;0.20;0.10;;;;;;;;;;5017414;28;20033;-81
2022/12/13 05:41:19;;;;;;;0.20;0.10;;;;;;;;;;5034621;28;20036;-82
2022/12/13 05:43:45;;;;;;;0.20;0.10;;;;;;;;;;5030930;28;20060;-82
2022/12/13 05:46:11;;;;;;;0.20;0.10;;;;;;;;;;5032519;28;20128;-81
2022/12/13 05:48:37;;;;;;;0.20;0.10;;;;;;;;;;5030942;28;20046;-82
2022/12/13 05:51:03;;;;;;;0.20;0.10;;;;;;;;;;5013928;28;20266;-82
2022/12/13 05:53:29;;;;;;;0.20;0.10;;;;;;;;;;5030791;28;20135;-82
2022/12/13 05:55:58;;;;;;;0.20;0.10;;;;;;;;;;5012533;28;20178;-82
2022/12/13 05:58:24;;;;;;;0.20;0.10;;;;;;;;;;5032231;28;20037;-82
2022/12/13 06:00:50;;;;;;;0.20;0.10;;;;;;;;;;5014870;28;20509;-82
2022/12/13 06:03:16;;;;;;;0.28;0.17;;;;;;;;;;5028773;28;20041;-81
2022/12/13 06:05:43;;;;;;;0.25;0.20;;;;;;;;;;5032041;28;20052;-81
2022/12/13 06:08:09;;;;;;;0.20;0.10;;;;;;;;;;5030895;28;20098;-82
2022/12/13 06:10:35;;;;;;;0.20;0.10;;;;;;;;;;5019494;28;20037;-82
2022/12/13 06:13:05;;;;;;;0.20;0.10;;;;;;;;;;5033408;28;20044;-82
2022/12/13 06:15:31;;;;;;;0.68;0.68;;;;;;;;;;5030253;28;20090;-82
2022/12/13 06:18:00;;;;;;;0.20;0.10;;;;;;;;;;5032840;28;20128;-82
2022/12/13 06:20:26;;;;;;;0.20;0.10;;;;;;;;;;5031849;28;20168;-83
2022/12/13 06:22:53;;;;;;;0.20;0.10;;;;;;;;;;5034350;28;20045;-82
2022/12/13 06:25:19;;;;;;;0.20;0.10;;;;;;;;;;5038345;28;20041;-82
2022/12/13 06:27:45;;;;;;;0.20;0.10;;;;;;;;;;5035562;28;20424;-82
2022/12/13 06:30:11;;;;;;;0.20;0.10;;;;;;;;;;5036776;28;20065;-82
2022/12/13 06:32:37;;;;;;;0.20;0.10;;;;;;;;;;5035963;28;20033;-82
2022/12/13 06:35:04;;;;;;;0.20;0.10;;;;;;;;;;5013466;28;20128;-83
2022/12/13 06:37:30;;;;;;;0.20;0.10;;;;;;;;;;5040072;28;20040;-82
2022/12/13 06:39:56;;;;;;;0.20;0.10;;;;;;;;;;5020216;28;20041;-82
2022/12/13 06:42:22;;;;;;;0.20;0.10;;;;;;;;;;5034472;28;20045;-82
2022/12/13 06:44:50;;;;;;;0.20;0.10;;;;;;;;;;5031945;28;20033;-81
2022/12/13 06:47:16;;;;;;;0.28;0.20;;;;;;;;;;5028820;28;20041;-82
2022/12/13 06:49:42;;;;;;;0.43;0.38;;;;;;;;;;5033015;28;20183;-82
2022/12/13 06:52:11;;;;;;;0.20;0.10;;;;;;;;;;5027369;28;20048;-82
2022/12/13 06:54:37;;;;;;;0.20;0.10;;;;;;;;;;5032294;28;20036;-83
2022/12/13 06:57:03;;;;;;;0.30;0.30;;;;;;;;;;5019088;28;20041;-83
2022/12/13 06:59:29;;;;;;;0.20;0.10;;;;;;;;;;5029741;28;20084;-83
2022/12/13 07:01:55;;;;;;;0.20;0.10;;;;;;;;;;5033091;28;20438;-82
2022/12/13 07:04:21;;;;;;;0.20;0.10;;;;;;;;;;5034595;28;20040;-82
2022/12/13 07:06:47;;;;;;;0.20;0.10;;;;;;;;;;5035432;28;20063;-82
2022/12/13 07:09:13;;;;;;;0.20;0.10;;;;;;;;;;5037541;28;20094;-83
2022/12/13 07:11:39;;;;;;;0.20;0.10;;;;;;;;;;5033028;28;20463;-82
2022/12/13 07:14:05;;;;;;;0.20;0.10;;;;;;;;;;5034185;28;20128;-82
2022/12/13 07:16:31;;;;;;;0.82;0.82;;;;;;;;;;5032791;28;20106;-82
2022/12/13 07:18:58;;;;;;;0.20;0.20;;;;;;;;;;5019227;28;20025;-82
2022/12/13 07:21:25;;;;;;;0.35;0.35;;;;;;;;;;5016157;28;20049;-82
2022/12/13 07:23:51;;;;;;;0.20;0.10;;;;;;;;;;5033220;28;20048;-82
2022/12/13 07:26:18;;;;;;;0.20;0.10;;;;;;;;;;5011571;28;20048;-80
2022/12/13 07:28:44;;;;;;;0.20;0.15;;;;;;;;;;5029927;28;20115;-82
2022/12/13 07:31:11;;;;;;;0.20;0.10;;;;;;;;;;5027038;28;20045;-82
2022/12/13 07:33:37;;;;;;;0.20;0.10;;;;;;;;;;5012823;28;20038;-82
2022/12/13 07:36:17;;;;;;;0.20;0.10;;;;;;;;;;5032448;28;20110;-82
2022/12/13 07:38:43;;;;;;;0.20;0.10;;;;;;;;;;5023210;28;20041;-82
2022/12/13 07:41:09;;;;;;;0.20;0.10;;;;;;;;;;5034060;28;20337;-82
2022/12/13 07:43:36;;;;;;;0.20;0.10;;;;;;;;;;5034336;28;20045;-82
2022/12/13 07:46:03;;;;;;;0.20;0.10;;;;;;;;;;5033638;28;20056;-82
2022/12/13 07:48:29;;;;;;;0.20;0.10;;;;;;;;;;5020663;28;20452;-81
2022/12/13 07:51:00;;;;;;;0.20;0.10;;;;;;;;;;5033939;28;20048;-81
2022/12/13 07:53:26;;;;;;;1.95;0.95;;;;;;;;;;5031894;28;20068;-81
2022/12/13 07:55:52;;;;;;;0.20;0.10;;;;;;;;;;5039113;28;20044;-82
2022/12/13 07:58:18;;;;;;;0.20;0.10;;;;;;;;;;5036710;28;20029;-82
2022/12/13 08:00:45;;;;;;;0.20;0.10;;;;;;;;;;5029171;28;20068;-82
2022/12/13 08:03:11;;;;;;;0.57;0.50;;;;;;;;;;5037196;28;20114;-83
2022/12/13 08:05:38;;;;;;;0.25;0.17;;;;;;;;;;5032244;28;20492;-81
2022/12/13 08:08:05;;;;;;;0.20;0.10;;;;;;;;;;5039119;28;20040;-81
2022/12/13 08:10:31;;;;;;;0.20;0.20;;;;;;;;;;5039343;28;20119;-80
2022/12/13 08:12:58;;;;;;;0.20;0.10;;;;;;;;;;5040141;28;20045;-81
2022/12/13 08:15:24;;;;;;;0.20;0.10;;;;;;;;;;5037328;28;20047;-82
2022/12/13 08:17:50;;;;;;;0.20;0.10;;;;;;;;;;5018852;28;20029;-81
2022/12/13 08:20:16;;;;;;;0.22;0.22;;;;;;;;;;5037222;28;20110;-81
2022/12/13 08:22:53;;;;;;;0.20;0.10;;;;;;;;;;5036588;28;20037;-82
2022/12/13 08:25:19;;;;;;;0.20;0.10;;;;;;;;;;5033954;28;20091;-81
2022/12/13 08:27:45;;;;;;;0.20;0.10;;;;;;;;;;5025328;28;20495;-81
2022/12/13 08:30:11;;;;;;;1.38;1.27;;;;;;;;;;5033206;28;20048;-81
2022/12/13 08:32:37;;;;;;;0.20;0.10;;;;;;;;;;5034281;28;20042;-81
2022/12/13 08:35:03;;;;;;;0.20;0.10;;;;;;;;;;5036260;28;20046;-82
2022/12/13 08:37:29;;;;;;;0.55;0.55;;;;;;;;;;5036648;28;20385;-82
2022/12/13 08:39:55;;;;;;;2.50;0.65;;;;;;;;;;5035905;28;20033;-81
2022/12/13 08:42:21;;;;;;;0.20;0.10;;;;;;;;;;5035687;28;20037;-81
2022/12/13 08:44:48;;;;;;;0.20;0.10;;;;;;;;;;5030663;28;20053;-82
2022/12/13 08:47:15;;;;;;;0.20;0.10;;;;;;;;;;5032395;28;20131;-82
2022/12/13 08:49:41;;;;;;;0.20;0.10;;;;;;;;;;5020912;28;20550;-82
2022/12/13 08:52:07;;;;;;;0.20;0.10;;;;;;;;;;5036806;28;20063;-82
2022/12/13 08:54:33;;;;;;;0.20;0.10;;;;;;;;;;5036963;28;20075;-81
2022/12/13 08:56:59;;;;;;;0.20;0.10;;;;;;;;;;5033724;28;20059;-81
2022/12/13 08:59:25;;;;;;;0.20;0.10;;;;;;;;;;5033179;28;20095;-81
2022/12/13 09:01:52;;;;;;;0.20;0.10;;;;;;;;;;5035011;28;20490;-82
2022/12/13 09:04:18;;;;;;;0.20;0.10;;;;;;;;;;5034326;28;20045;-81
2022/12/13 09:06:44;;;;;;;1.75;1.65;;;;;;;;;;5035636;28;20095;-81
2022/12/13 09:09:11;;;;;;;0.20;0.10;;;;;;;;;;5036947;28;20045;-81
2022/12/13 09:11:39;;;;;;;0.20;0.10;;;;;;;;;;5022451;28;20120;-81
2022/12/13 09:14:05;;;;;;;0.20;0.10;;;;;;;;;;5024693;28;20132;-81
2022/12/13 09:16:35;;;;;;;0.20;0.10;;;;;;;;;;5034117;28;20044;-80
2022/12/13 09:19:01;;;;;;;0.20;0.10;;;;;;;;;;5016367;28;20102;-82
2022/12/13 09:21:27;;;;;;;0.20;0.20;;;;;;;;;;5038366;28;20392;-81
2022/12/13 09:23:54;;;;;;;0.20;0.10;;;;;;;;;;5042128;28;20049;-82
2022/12/13 09:26:20;;;;;;;0.20;0.10;;;;;;;;;;5017993;28;20570;-82
2022/12/13 09:28:46;;;;;;;0.20;0.20;;;;;;;;;;5033868;28;20124;-82
2022/12/13 09:31:13;;;;;;;0.20;0.10;;;;;;;;;;5029497;28;20487;-82
2022/12/13 09:33:39;;;;;;;0.20;0.10;;;;;;;;;;5034254;28;20065;-81
2022/12/13 09:36:06;;;;;;;0.20;0.10;;;;;;;;;;5022160;28;20118;-81
2022/12/13 09:38:34;;;;;;;0.20;0.10;;;;;;;;;;5034299;28;20049;-82
2022/12/13 09:41:03;;;;;;;0.20;0.10;;;;;;;;;;5020848;28;20037;-81
2022/12/13 09:43:30;;;;;;;0.40;0.40;;;;;;;;;;5031878;28;20045;-81
2022/12/13 09:45:57;;;;;;;0.20;0.10;;;;;;;;;;5036284;28;20040;-82
2022/12/13 09:48:23;;;;;;;0.20;0.10;;;;;;;;;;5029368;28;20049;-82
2022/12/13 09:50:49;;;;;;;0.20;0.10;;;;;;;;;;5029850;28;20037;-81
2022/12/13 09:53:17;;;;;;;0.20;0.10;;;;;;;;;;5033314;28;20044;-81
2022/12/13 09:55:48;;;;;;;0.20;0.10;;;;;;;;;;5031607;28;20034;-81
2022/12/13 09:58:17;;;;;;;0.20;0.10;;;;;;;;;;5024292;28;20071;-82
2022/12/13 10:00:43;;;;;;;0.30;0.30;;;;;;;;;;5035085;28;20030;-80
2022/12/13 10:03:12;;;;;;;0.20;0.10;;;;;;;;;;5027385;28;20068;-81
2022/12/13 10:05:39;;;;;;;0.20;0.10;;;;;;;;;;5031653;28;20759;-81
2022/12/13 10:08:12;;;;;;;0.85;0.85;;;;;;;;;;5029893;28;20037;-81
2022/12/13 10:10:38;;;;;;;0.43;0.43;;;;;;;;;;5023678;28;20047;-80
2022/12/13 10:13:04;;;;;;;0.20;0.20;;;;;;;;;;5023887;28;20049;-82
2022/12/13 10:15:33;;;;;;;0.20;0.10;;;;;;;;;;5016055;28;20087;-81
2022/12/13 10:18:02;;;;;;;0.30;0.22;;;;;;;;;;5031282;28;20095;-81
2022/12/13 10:20:29;;;;;;;0.20;0.10;;;;;;;;;;5010326;28;20471;-81
2022/12/13 10:22:55;;;;;;;0.20;0.10;;;;;;;;;;5018320;28;20045;-81
2022/12/13 10:25:40;;;;;;;0.20;0.10;;;;;;;;;;5032261;28;20034;-81
2022/12/13 10:28:06;;;;;;;0.20;0.10;;;;;;;;;;5030608;28;20044;-81
2022/12/13 10:30:39;;;;;;;0.40;0.40;;;;;;;;;;5016799;28;20047;-81
2022/12/13 10:33:05;;;;;;;0.20;0.10;;;;;;;;;;5035240;28;20450;-81
2022/12/13 10:35:36;;;;;;;0.20;0.10;;;;;;;;;;5033090;28;20100;-80
2022/12/13 10:38:20;;;;;;;0.20;0.10;;;;;;;;;;5034968;28;20048;-80
2022/12/13 10:40:47;;;;;;;0.20;0.10;;;;;;;;;;5013902;28;20033;-80
2022/12/13 10:43:20;;;;;;;0.20;0.10;;;;;;;;;;5033567;28;20049;-80
2022/12/13 10:45:57;;;;;;;0.20;0.10;;;;;;;;;;5016273;28;20048;-80
2022/12/13 10:48:24;;;;;;;0.20;0.10;;;;;;;;;;5030096;28;20041;-81
2022/12/13 10:51:05;;;;;;;0.20;0.10;;;;;;;;;;5031027;28;20385;-81
2022/12/13 10:53:33;;;;;;;0.20;0.10;;;;;;;;;;5030709;28;20126;-80
2022/12/13 10:56:00;;;;;;;0.20;0.10;;;;;;;;;;5032059;28;20072;-79
2022/12/13 10:58:34;;;;;;;0.20;0.10;;;;;;;;;;5018641;28;20052;-80
2022/12/13 11:01:07;;;;;;;0.20;0.10;;;;;;;;;;5033002;28;20037;-80
2022/12/13 11:03:34;;;;;;;0.20;0.10;;;;;;;;;;5033001;28;20048;-80
2022/12/13 11:06:03;;;;;;;0.20;0.10;;;;;;;;;;5032517;28;20045;-80
2022/12/13 11:08:29;;;;;;;0.20;0.10;;;;;;;;;;5029369;28;20155;-80
2022/12/13 11:11:02;;;;;;;0.20;0.10;;;;;;;;;;5015905;28;20040;-80
2022/12/13 11:13:37;;;;;;;0.20;0.10;;;;;;;;;;5022346;28;20120;-79
2022/12/13 11:16:15;;;;;;;0.20;0.10;;;;;;;;;;5033421;28;20044;-80
2022/12/13 11:18:41;;;;;;;0.20;0.10;;;;;;;;;;5032237;28;20065;-80
2022/12/13 11:21:08;;;;;;;0.20;0.10;;;;;;;;;;5018285;28;20044;-80
2022/12/13 11:23:36;;;;;;;0.20;0.10;;;;;;;;;;5035803;28;20534;-80
2022/12/13 11:26:08;;;;;;;0.20;0.20;;;;;;;;;;5030607;28;20753;-80
2022/12/13 11:28:57;;;;;;;0.20;0.10;;;;;;;;;;5030317;28;20163;-80
2022/12/13 11:31:29;;;;;;;0.20;0.15;;;;;;;;;;5024981;28;20120;-80
2022/12/13 11:34:14;;;;;;;0.20;0.10;;;;;;;;;;5033116;28;20041;-80
2022/12/13 11:36:50;;;;;;;0.20;0.10;;;;;;;;;;5034445;28;20037;-80
2022/12/13 11:39:16;;;;;;;0.20;0.10;;;;;;;;;;5034218;28;20537;-79
2022/12/13 11:41:54;;;;;;;0.20;0.10;;;;;;;;;;5041042;28;20076;-80
2022/12/13 11:44:24;;;;;;;0.20;0.10;;;;;;;;;;5038746;28;20041;-80
2022/12/13 11:46:51;;;;;;;0.95;0.95;;;;;;;;;;5034564;28;20572;-80
2022/12/13 11:49:21;;;;;;;0.20;0.10;;;;;;;;;;5019639;28;20037;-80
2022/12/13 11:51:52;;;;;;;0.47;0.47;;;;;;;;;;5038515;28;20037;-80
2022/12/13 11:54:23;;;;;;;0.20;0.10;;;;;;;;;;5036597;28;20037;-81
2022/12/13 11:56:49;;;;;;;0.20;0.10;;;;;;;;;;5039045;28;20538;-80
2022/12/13 11:59:24;;;;;;;0.20;0.10;;;;;;;;;;5035775;28;20029;-80
2022/12/13 12:01:56;;;;;;;0.20;0.10;;;;;;;;;;5021847;28;20044;-81
2022/12/13 12:04:41;;;;;;;0.57;0.52;;;;;;;;;;5037096;28;20048;-82
2022/12/13 12:07:10;;;;;;;0.88;0.82;;;;;;;;;;5022815;28;20219;-81
2022/12/13 12:09:38;;;;;;;0.20;0.10;;;;;;;;;;5035738;28;20045;-81
2022/12/13 12:12:12;;;;;;;0.20;0.10;;;;;;;;;;5035308;28;20036;-80
2022/12/13 12:14:42;;;;;;;6.55;4.68;;;;;;;;;;5035970;28;20071;-81
2022/12/13 12:17:12;;;;;;;0.20;0.10;;;;;;;;;;5032376;28;20037;-81
2022/12/13 12:19:39;;;;;;;0.20;0.10;;;;;;;;;;5039210;28;20044;-81
2022/12/13 12:22:14;;;;;;;0.20;0.10;;;;;;;;;;5023167;28;20117;-82
2022/12/13 12:24:59;;;;;;;0.20;0.10;;;;;;;;;;5036143;28;20523;-82
2022/12/13 12:27:28;;;;;;;0.20;0.10;;;;;;;;;;5022804;28;20037;-82
2022/12/13 12:30:00;;;;;;;0.20;0.10;;;;;;;;;;5037882;28;20052;-82
2022/12/13 12:32:37;;;;;;;0.25;0.25;;;;;;;;;;5042316;28;20136;-83
2022/12/13 12:35:25;;;;;;;0.20;0.10;;;;;;;;;;5039890;28;20611;-83
2022/12/13 12:37:52;;;;;;;0.22;0.15;;;;;;;;;;5021443;28;20184;-85
2022/12/13 12:40:21;;;;;;;0.20;0.10;;;;;;;;;;5034342;28;20042;-83
2022/12/13 12:42:50;;;;;;;0.52;0.43;;;;;;;;;;5024093;28;20037;-83
2022/12/13 12:45:26;;;;;;;0.98;0.98;;;;;;;;;;5035996;28;20037;-84
2022/12/13 12:48:15;;;;;;;0.20;0.10;;;;;;;;;;5020489;28;20456;-83
2022/12/13 12:50:47;;;;;;;0.20;0.10;;;;;;;;;;5042192;28;20505;-84
2022/12/13 12:53:13;;;;;;;;;;;;;;;;;;5039021;28;20080;-83
2022/12/13 12:55:55;;;;;;;0.20;0.10;;;;;;;;;;5037637;28;19917;-83
2022/12/13 12:58:36;;;;;;;0.20;0.20;;;;;;;;;;5041242;28;20055;-84
2022/12/13 13:01:02;;;;;;;0.20;0.10;;;;;;;;;;5033095;28;20037;-83
2022/12/13 13:03:30;;;;;;;0.20;0.10;;;;;;;;;;5040448;28;20488;-84
2022/12/13 13:06:00;;;;;;;0.20;0.10;;;;;;;;;;5034842;28;20045;-84
2022/12/13 13:08:33;;;;;;;0.20;0.10;;;;;;;;;;5040474;28;20042;-83
2022/12/13 13:11:00;;;;;;;0.20;0.10;;;;;;;;;;5037465;28;20065;-83
2022/12/13 13:13:49;;;;;;;0.20;0.10;;;;;;;;;;5034551;28;20080;-83
2022/12/13 13:16:35;;;;;;;0.20;0.10;;;;;;;;;;5035351;28;20415;-85
2022/12/13 13:19:24;;;;;;;0.65;0.45;;;;;;;;;;5021505;28;20034;-84
2022/12/13 13:21:52;;;;;;;0.20;0.10;;;;;;;;;;4998627;28;20053;-85
2022/12/13 13:24:21;;;;;;;0.20;0.10;;;;;;;;;;5020278;28;20542;-84
2022/12/13 13:26:47;;;;;;;0.20;0.10;;;;;;;;;;5021718;28;20492;-84
2022/12/13 13:29:42;;;;;;;0.20;0.20;;;;;;;;;;5037727;28;20038;-83
2022/12/13 13:32:11;;;;;;;0.20;0.10;;;;;;;;;;5017341;28;20459;-86
2022/12/13 13:34:52;;;;;;;0.20;0.20;;;;;;;;;;5018847;28;20056;-85
2022/12/13 13:37:24;;;;;;;0.22;0.15;;;;;;;;;;5038880;28;20510;-85
2022/12/13 13:40:00;;;;;;;0.30;0.30;;;;;;;;;;5037461;28;20519;-86
2022/12/13 13:42:30;;;;;;;0.40;0.40;;;;;;;;;;5024573;28;20537;-85
2022/12/13 13:45:02;;;;;;;0.20;0.13;;;;;;;;;;5034298;28;20068;-84
2022/12/13 13:47:37;;;;;;;0.20;0.10;;;;;;;;;;5019353;28;20669;-84
2022/12/13 13:50:09;;;;;;;0.20;0.10;;;;;;;;;;5018128;28;20037;-84
2022/12/13 13:52:54;;;;;;;0.20;0.10;;;;;;;;;;5038534;28;20088;-84
2022/12/13 13:55:23;;;;;;;0.20;0.20;;;;;;;;;;5034680;28;20518;-85
2022/12/13 13:58:08;;;;;;;2.28;2.17;;;;;;;;;;5034948;28;20040;-85
2022/12/13 14:00:53;;;;;;;0.20;0.10;;;;;;;;;;5021567;28;20037;-86
2022/12/13 14:03:37;;;;;;;0.20;0.10;;;;;;;;;;5032269;28;20044;-85
2022/12/13 14:06:22;;;;;;;0.30;0.30;;;;;;;;;;5034195;28;20475;-85
2022/12/13 14:09:03;;;;;;;0.20;0.10;;;;;;;;;;5018588;28;20041;-85
2022/12/13 14:11:55;;;;;;;0.20;0.20;;;;;;;;;;5014957;28;20257;-85
2022/12/13 14:14:24;;;;;;;0.40;0.40;;;;;;;;;;5022467;28;20069;-85
2022/12/13 14:16:59;;;;;;;0.20;0.20;;;;;;;;;;5108889;23;20044;-87
2022/12/13 14:19:40;;;;;;;0.20;0.10;;;;;;;;;;5043030;28;20103;-85
2022/12/13 14:22:09;;;;;;;0.20;0.10;;;;;;;;;;5017808;28;20068;-85
2022/12/13 14:24:54;;;;;;;0.20;0.20;;;;;;;;;;5018061;28;20044;-84
2022/12/13 14:27:33;;;;;;;0.73;0.73;;;;;;;;;;5038029;28;20044;-85
2022/12/13 14:29:59;;;;;;;0.88;0.47;;;;;;;;;;4987799;22;20043;-81
2022/12/13 14:32:37;;;;;;;0.20;0.10;;;;;;;;;;4945788;28;20059;-81
2022/12/13 14:35:03;;;;;;;0.45;0.45;;;;;;;;;;4933570;28;20050;-80
2022/12/13 14:37:30;;;;;;;0.20;0.20;;;;;;;;;;4934703;28;20043;-81
2022/12/13 14:39:57;;;;;;;0.20;0.10;;;;;;;;;;4929931;28;20059;-80
2022/12/13 14:42:34;;;;;;;0.20;0.10;;;;;;;;;;4922567;28;20048;-81
2022/12/13 14:45:14;;;;;;;0.20;0.10;;;;;;;;;;4907042;28;20044;-78
2022/12/13 14:47:41;;;;;;;0.57;0.40;;;;;;;;;;4942032;28;20035;-81
2022/12/13 14:50:07;;;;;;;0.20;0.10;;;;;;;;;;4930387;28;20776;-80
2022/12/13 14:52:38;;;;;;;0.20;0.10;;;;;;;;;;4926470;28;20568;-78
2022/12/13 14:55:05;;;;;;;0.20;0.10;;;;;;;;;;4927374;28;20751;-80
2022/12/13 14:57:32;;;;;;;1.45;1.38;;;;;;;;;;4927170;28;20044;-80